createdAt,value
2018-03-28T00:00:22.644Z,22.50
2018-03-28T00:01:22.616Z,24.50
2018-03-28T00:02:22.594Z,26.60
2018-03-28T00:03:22.577Z,24.00
2018-03-28T00:04:22.559Z,26.20
2018-03-28T00:05:22.516Z,24.30
2018-03-28T00:06:22.503Z,22.20
2018-03-28T00:07:22.480Z,24.30
2018-03-28T00:08:22.443Z,24.70
2018-03-28T00:09:22.419Z,23.60
2018-03-28T00:10:22.411Z,25.00
2018-03-28T00:11:22.377Z,24.20
2018-03-28T00:12:22.351Z,24.40
2018-03-28T00:13:22.338Z,23.80
2018-03-28T00:14:22.301Z,21.90
2018-03-28T00:15:22.275Z,25.70
2018-03-28T00:16:22.253Z,24.40
2018-03-28T00:17:22.230Z,25.80
2018-03-28T00:18:22.220Z,22.20
2018-03-28T00:19:22.186Z,25.30
2018-03-28T00:20:22.151Z,26.80
2018-03-28T00:21:22.135Z,26.50
2018-03-28T00:22:22.114Z,26.50
2018-03-28T00:23:22.089Z,23.00
2018-03-28T00:24:22.112Z,23.70
2018-03-28T00:25:22.035Z,23.90
2018-03-28T00:26:22.009Z,27.70
2018-03-28T00:27:22.053Z,26.40
2018-03-28T00:28:21.960Z,23.50
2018-03-28T00:29:21.936Z,25.10
2018-03-28T00:30:21.908Z,23.70
2018-03-28T00:31:21.885Z,24.00
2018-03-28T00:32:21.859Z,23.80
2018-03-28T00:33:21.837Z,22.90
2018-03-28T00:34:21.863Z,21.50
2018-03-28T00:35:21.798Z,23.10
2018-03-28T00:36:21.787Z,24.30
2018-03-28T00:37:21.746Z,25.70
2018-03-28T00:38:21.719Z,28.30
2018-03-28T00:39:21.688Z,24.90
2018-03-28T00:40:21.677Z,26.30
2018-03-28T00:41:21.652Z,24.90
2018-03-28T00:42:21.622Z,25.20
2018-03-28T00:43:21.591Z,28.10
2018-03-28T00:44:21.567Z,24.60
2018-03-28T00:45:21.540Z,26.50
2018-03-28T00:46:21.527Z,25.40
2018-03-28T00:47:21.505Z,27.30
2018-03-28T00:48:21.477Z,24.40
2018-03-28T00:49:21.448Z,25.20
2018-03-28T00:50:21.423Z,26.90
2018-03-28T00:51:21.400Z,25.10
2018-03-28T00:52:21.369Z,29.70
2018-03-28T00:53:21.346Z,27.30
2018-03-28T00:54:21.330Z,30.40
2018-03-28T00:55:21.297Z,28.40
2018-03-28T00:56:21.303Z,28.70
2018-03-28T00:57:21.260Z,28.50
2018-03-28T00:58:21.231Z,28.40
2018-03-28T00:59:21.196Z,26.60
2018-03-28T01:00:21.198Z,32.10
2018-03-28T01:01:21.149Z,29.10
2018-03-28T01:02:21.122Z,30.30
2018-03-28T01:03:21.101Z,30.90
2018-03-28T01:04:21.077Z,28.40
2018-03-28T01:05:21.050Z,29.10
2018-03-28T01:06:21.027Z,32.60
2018-03-28T01:07:21.001Z,28.90
2018-03-28T01:08:20.975Z,30.40
2018-03-28T01:09:20.954Z,31.90
2018-03-28T01:10:20.925Z,28.20
2018-03-28T01:11:20.898Z,29.70
2018-03-28T01:12:20.874Z,31.60
2018-03-28T01:13:20.855Z,32.20
2018-03-28T01:14:20.861Z,36.60
2018-03-28T01:15:20.812Z,28.40
2018-03-28T01:16:20.781Z,28.30
2018-03-28T01:17:20.762Z,29.80
2018-03-28T01:18:20.727Z,30.90
2018-03-28T01:19:20.702Z,30.60
2018-03-28T01:20:20.694Z,28.10
2018-03-28T01:21:20.659Z,31.10
2018-03-28T01:22:20.629Z,31.70
2018-03-28T01:23:20.605Z,30.90
2018-03-28T01:24:20.582Z,33.00
2018-03-28T01:25:20.555Z,31.00
2018-03-28T01:26:20.527Z,31.50
2018-03-28T01:27:20.507Z,34.80
2018-03-28T01:28:20.483Z,33.20
2018-03-28T01:29:20.454Z,38.10
2018-03-28T01:30:20.438Z,37.00
2018-03-28T01:31:20.405Z,35.80
2018-03-28T01:32:20.378Z,37.50
2018-03-28T01:33:20.352Z,33.70
2018-03-28T01:34:20.335Z,34.70
2018-03-28T01:35:20.304Z,37.50
2018-03-28T01:36:20.278Z,36.10
2018-03-28T01:37:20.264Z,37.50
2018-03-28T01:38:20.233Z,36.50
2018-03-28T01:39:20.204Z,34.60
2018-03-28T01:40:20.181Z,40.10
2018-03-28T01:41:20.159Z,38.00
2018-03-28T01:42:20.140Z,36.10
2018-03-28T01:43:20.112Z,38.10
2018-03-28T01:44:20.083Z,39.50
2018-03-28T01:45:20.057Z,38.00
2018-03-28T01:46:20.040Z,37.30
2018-03-28T01:47:20.009Z,34.90
2018-03-28T01:48:19.982Z,38.20
2018-03-28T01:49:19.958Z,37.90
2018-03-28T01:50:19.932Z,40.70
2018-03-28T01:51:19.923Z,39.10
2018-03-28T01:52:19.881Z,39.20
2018-03-28T01:53:19.863Z,33.60
2018-03-28T01:54:19.833Z,39.10
2018-03-28T01:55:19.815Z,39.30
2018-03-28T01:56:19.786Z,36.50
2018-03-28T01:57:19.756Z,37.10
2018-03-28T01:58:19.740Z,38.90
2018-03-28T01:59:19.709Z,39.50
2018-03-28T02:00:19.682Z,40.00
2018-03-28T02:01:19.661Z,41.20
2018-03-28T02:02:19.633Z,35.80
2018-03-28T02:03:19.619Z,38.80
2018-03-28T02:04:19.591Z,40.10
2018-03-28T02:05:19.560Z,41.60
2018-03-28T02:06:19.541Z,36.00
2018-03-28T02:07:19.510Z,41.00
2018-03-28T02:08:19.495Z,38.80
2018-03-28T02:09:19.474Z,42.80
2018-03-28T02:10:19.438Z,41.50
2018-03-28T02:11:19.419Z,36.10
2018-03-28T02:12:19.388Z,41.50
2018-03-28T02:13:19.364Z,41.20
2018-03-28T02:14:19.349Z,45.00
2018-03-28T02:15:19.313Z,38.30
2018-03-28T02:16:19.299Z,40.00
2018-03-28T02:17:19.266Z,41.50
2018-03-28T02:18:19.240Z,42.50
2018-03-28T02:19:19.215Z,43.30
2018-03-28T02:20:19.189Z,42.60
2018-03-28T02:21:19.168Z,41.40
2018-03-28T02:22:19.189Z,43.60
2018-03-28T02:23:19.121Z,38.80
2018-03-28T02:24:19.096Z,40.60
2018-03-28T02:25:19.073Z,44.60
2018-03-28T02:26:19.044Z,42.90
2018-03-28T02:27:19.021Z,42.10
2018-03-28T02:28:19.000Z,48.50
2018-03-28T02:29:18.970Z,43.40
2018-03-28T02:30:18.955Z,47.50
2018-03-28T02:31:18.923Z,39.20
2018-03-28T02:32:18.901Z,39.60
2018-03-28T02:33:18.873Z,40.20
2018-03-28T02:34:18.853Z,42.40
2018-03-28T02:35:18.827Z,43.70
2018-03-28T02:58:34.844Z,41.60
2018-03-28T02:59:00.779Z,46.80
2018-03-28T03:00:00.764Z,44.50
2018-03-28T03:01:00.742Z,40.10
2018-03-28T03:02:00.759Z,38.90
2018-03-28T03:03:00.685Z,44.60
2018-03-28T03:04:00.669Z,42.40
2018-03-28T03:05:00.635Z,43.90
2018-03-28T03:06:00.621Z,40.60
2018-03-28T03:07:00.589Z,44.90
2018-03-28T03:08:00.566Z,39.80
2018-03-28T03:09:00.538Z,49.40
2018-03-28T03:10:00.519Z,43.20
2018-03-28T03:11:00.497Z,45.30
2018-03-28T03:12:00.469Z,42.40
2018-03-28T03:13:00.444Z,43.50
2018-03-28T03:14:00.418Z,40.60
2018-03-28T03:15:00.410Z,43.40
2018-03-28T03:16:00.378Z,46.10
2018-03-28T03:17:00.346Z,45.40
2018-03-28T03:18:00.326Z,42.70
2018-03-28T03:19:00.306Z,47.60
2018-03-28T03:20:00.310Z,43.10
2018-03-28T03:21:00.259Z,47.20
2018-03-28T03:22:00.233Z,45.10
2018-03-28T03:23:00.206Z,44.40
2018-03-28T03:24:00.180Z,46.50
2018-03-28T03:25:00.166Z,51.80
2018-03-28T03:26:00.132Z,51.20
2018-03-28T03:27:00.109Z,47.40
2018-03-28T03:28:00.095Z,50.40
2018-03-28T03:29:00.059Z,54.90
2018-03-28T03:30:00.042Z,54.30
2018-03-28T03:31:00.018Z,59.70
2018-03-28T03:31:59.992Z,58.60
2018-03-28T03:32:59.971Z,56.10
2018-03-28T03:33:59.939Z,59.70
2018-03-28T03:34:59.912Z,56.20
2018-03-28T03:35:59.888Z,57.00
2018-03-28T03:36:59.914Z,65.60
2018-03-28T03:37:59.843Z,55.60
2018-03-28T03:38:59.815Z,67.10
2018-03-28T03:39:59.791Z,65.30
2018-03-28T03:40:59.768Z,72.20
2018-03-28T03:41:59.743Z,67.80
2018-03-28T03:42:59.748Z,65.10
2018-03-28T03:43:59.700Z,69.70
2018-03-28T03:44:59.675Z,74.70
2018-03-28T03:45:59.645Z,72.00
2018-03-28T03:46:59.628Z,83.60
2018-03-28T03:47:59.605Z,71.80
2018-03-28T03:48:59.580Z,74.40
2018-03-28T03:49:59.550Z,67.60
2018-03-28T03:50:59.524Z,76.00
2018-03-28T03:51:59.497Z,81.80
2018-03-28T03:52:59.478Z,73.80
2018-03-28T03:53:59.453Z,74.10
2018-03-28T03:54:59.424Z,76.30
2018-03-28T03:55:59.401Z,76.20
2018-03-28T03:56:59.379Z,75.80
2018-03-28T03:57:59.355Z,80.20
2018-03-28T03:58:59.325Z,88.00
2018-03-28T03:59:59.326Z,86.10
2018-03-28T04:00:59.281Z,79.70
2018-03-28T04:01:59.256Z,82.10
2018-03-28T04:02:59.228Z,83.60
2018-03-28T04:03:59.206Z,88.60
2018-03-28T04:04:59.180Z,88.00
2018-03-28T04:05:59.153Z,88.90
2018-03-28T04:06:59.138Z,89.40
2018-03-28T04:07:59.108Z,87.50
2018-03-28T04:08:59.079Z,96.50
2018-03-28T04:09:59.057Z,95.20
2018-03-28T04:10:59.075Z,83.90
2018-03-28T04:11:59.041Z,91.30
2018-03-28T04:12:58.991Z,105.40
2018-03-28T04:13:58.980Z,92.70
2018-03-28T04:14:58.934Z,104.00
2018-03-28T04:15:58.917Z,107.70
2018-03-28T04:16:58.900Z,95.00
2018-03-28T04:17:58.864Z,116.20
2018-03-28T04:18:58.842Z,109.30
2018-03-28T04:19:58.817Z,112.10
2018-03-28T04:20:58.798Z,121.30
2018-03-28T04:21:58.769Z,113.00
2018-03-28T04:22:58.742Z,104.40
2018-03-28T04:23:58.720Z,118.40
2018-03-28T04:24:58.692Z,117.20
2018-03-28T04:25:58.668Z,118.60
2018-03-28T04:26:58.648Z,123.80
2018-03-28T04:27:58.634Z,116.00
2018-03-28T04:28:58.597Z,115.40
2018-03-28T04:29:58.623Z,124.50
2018-03-28T04:30:58.554Z,118.70
2018-03-28T04:31:58.521Z,122.80
2018-03-28T04:32:58.497Z,129.20
2018-03-28T04:33:58.475Z,115.10
2018-03-28T04:34:58.449Z,117.70
2018-03-28T04:35:58.426Z,122.50
2018-03-28T04:36:58.404Z,125.00
2018-03-28T04:37:58.376Z,145.40
2018-03-28T04:38:58.353Z,139.40
2018-03-28T04:39:58.337Z,136.80
2018-03-28T04:40:58.305Z,132.40
2018-03-28T04:41:58.310Z,138.10
2018-03-28T04:42:58.258Z,139.70
2018-03-28T04:43:58.235Z,162.20
2018-03-28T04:44:58.207Z,145.30
2018-03-28T04:45:58.183Z,140.30
2018-03-28T04:46:58.166Z,132.20
2018-03-28T04:47:58.135Z,146.40
2018-03-28T04:48:58.117Z,141.30
2018-03-28T04:49:58.097Z,126.60
2018-03-28T04:50:58.062Z,129.80
2018-03-28T04:51:58.039Z,134.20
2018-03-28T04:52:58.016Z,122.30
2018-03-28T04:53:57.994Z,141.00
2018-03-28T04:54:57.966Z,127.90
2018-03-28T04:55:57.940Z,125.10
2018-03-28T04:56:57.925Z,130.70
2018-03-28T04:57:57.892Z,136.00
2018-03-28T04:58:57.864Z,144.80
2018-03-28T04:59:57.843Z,137.30
2018-03-28T05:00:57.820Z,159.90
2018-03-28T05:01:57.799Z,145.30
2018-03-28T05:02:57.772Z,139.50
2018-03-28T05:03:57.778Z,149.60
2018-03-28T05:04:57.719Z,133.90
2018-03-28T05:05:57.696Z,136.70
2018-03-28T05:06:57.685Z,128.40
2018-03-28T05:07:57.651Z,131.70
2018-03-28T05:08:57.644Z,123.60
2018-03-28T05:09:57.602Z,123.30
2018-03-28T05:10:57.577Z,123.10
2018-03-28T05:11:57.558Z,127.50
2018-03-28T05:12:57.534Z,124.70
2018-03-28T05:13:57.502Z,130.50
2018-03-28T05:14:57.473Z,128.90
2018-03-28T05:15:57.455Z,119.80
2018-03-28T05:16:57.430Z,117.00
2018-03-28T05:17:57.445Z,125.40
2018-03-28T05:18:57.418Z,125.40
2018-03-28T05:19:57.357Z,126.60
2018-03-28T05:20:57.330Z,115.50
2018-03-28T05:21:57.323Z,132.30
2018-03-28T05:22:57.293Z,121.80
2018-03-28T05:23:57.265Z,121.40
2018-03-28T05:24:57.238Z,112.60
2018-03-28T05:25:57.223Z,120.40
2018-03-28T05:26:57.203Z,121.80
2018-03-28T05:27:57.190Z,107.00
2018-03-28T05:28:57.133Z,122.10
2018-03-28T05:29:57.116Z,123.50
2018-03-28T05:30:57.087Z,123.10
2018-03-28T05:31:57.065Z,123.70
2018-03-28T05:32:57.136Z,125.90
2018-03-28T05:33:57.021Z,109.60
2018-03-28T05:34:56.995Z,109.00
2018-03-28T05:35:56.968Z,121.40
2018-03-28T05:36:56.947Z,123.30
2018-03-28T05:37:56.927Z,109.20
2018-03-28T05:38:56.890Z,116.80
2018-03-28T05:39:56.876Z,108.90
2018-03-28T05:40:56.861Z,124.20
2018-03-28T05:41:56.818Z,99.50
2018-03-28T05:42:56.797Z,120.10
2018-03-28T05:43:56.816Z,109.90
2018-03-28T05:44:56.746Z,110.60
2018-03-28T05:45:56.719Z,120.50
2018-03-28T05:46:56.698Z,105.60
2018-03-28T05:47:56.678Z,111.50
2018-03-28T05:48:56.648Z,110.30
2018-03-28T05:49:56.625Z,116.00
2018-03-28T05:50:56.608Z,109.50
2018-03-28T05:51:56.579Z,116.70
2018-03-28T05:52:56.555Z,112.50
2018-03-28T05:53:56.527Z,103.20
2018-03-28T05:54:56.506Z,115.50
2018-03-28T05:55:56.485Z,118.10
2018-03-28T05:56:56.452Z,124.90
2018-03-28T05:57:56.459Z,128.60
2018-03-28T05:58:56.404Z,121.80
2018-03-28T05:59:56.393Z,118.00
2018-03-28T06:00:56.367Z,129.90
2018-03-28T06:01:56.335Z,119.90
2018-03-28T06:02:56.311Z,129.70
2018-03-28T06:03:56.288Z,135.20
2018-03-28T06:04:56.259Z,148.40
2018-03-28T06:05:56.229Z,144.10
2018-03-28T06:06:56.210Z,134.60
2018-03-28T06:07:56.185Z,133.20
2018-03-28T06:08:56.157Z,129.80
2018-03-28T06:09:56.141Z,133.50
2018-03-28T06:10:56.115Z,127.60
2018-03-28T06:11:56.096Z,138.90
2018-03-28T06:12:56.070Z,137.20
2018-03-28T06:13:56.042Z,146.70
2018-03-28T06:14:56.015Z,148.50
2018-03-28T06:15:55.995Z,139.20
2018-03-28T06:16:55.966Z,147.60
2018-03-28T06:17:55.941Z,147.00
2018-03-28T06:18:55.920Z,145.60
2018-03-28T06:19:55.897Z,138.30
2018-03-28T06:20:55.872Z,133.10
2018-03-28T06:21:55.845Z,140.20
2018-03-28T06:22:55.822Z,141.80
2018-03-28T06:23:55.823Z,148.20
2018-03-28T06:24:55.774Z,145.10
2018-03-28T06:25:55.749Z,136.00
2018-03-28T06:26:55.720Z,143.50
2018-03-28T06:27:55.696Z,143.70
2018-03-28T06:28:55.677Z,133.80
2018-03-28T06:29:55.657Z,143.40
2018-03-28T06:30:55.624Z,138.40
2018-03-28T06:31:55.599Z,140.30
2018-03-28T06:32:55.575Z,129.50
2018-03-28T06:33:55.556Z,135.80
2018-03-28T06:34:55.531Z,143.00
2018-03-28T06:35:55.529Z,127.70
2018-03-28T06:36:55.476Z,136.20
2018-03-28T06:37:55.450Z,125.60
2018-03-28T06:38:55.430Z,125.60
2018-03-28T06:39:55.412Z,130.70
2018-03-28T06:40:55.393Z,142.50
2018-03-28T06:41:55.358Z,129.70
2018-03-28T06:42:55.332Z,148.60
2018-03-28T06:43:55.308Z,122.90
2018-03-28T06:44:55.284Z,130.10
2018-03-28T06:45:55.258Z,114.80
2018-03-28T06:46:55.233Z,129.50
2018-03-28T06:47:55.213Z,126.80
2018-03-28T06:48:55.189Z,125.70
2018-03-28T06:49:55.169Z,143.80
2018-03-28T06:50:55.138Z,130.70
2018-03-28T06:51:55.115Z,138.10
2018-03-28T06:52:55.090Z,128.00
2018-03-28T06:53:55.060Z,136.40
2018-03-28T06:54:55.037Z,146.70
2018-03-28T06:55:55.020Z,133.50
2018-03-28T06:56:54.994Z,134.90
2018-03-28T06:57:54.969Z,135.10
2018-03-28T06:58:54.944Z,141.20
2018-03-28T06:59:54.925Z,139.70
2018-03-28T07:00:54.897Z,146.20
2018-03-28T07:01:54.872Z,142.80
2018-03-28T07:02:54.846Z,151.70
2018-03-28T07:03:54.823Z,150.40
2018-03-28T07:04:54.807Z,151.90
2018-03-28T07:05:54.769Z,156.80
2018-03-28T07:06:54.758Z,159.80
2018-03-28T07:07:54.750Z,160.50
2018-03-28T07:08:54.709Z,169.00
2018-03-28T07:09:54.683Z,168.10
2018-03-28T07:10:54.674Z,188.50
2018-03-28T07:11:54.628Z,170.40
2018-03-28T07:12:54.604Z,158.40
2018-03-28T07:13:54.581Z,149.70
2018-03-28T07:14:54.555Z,147.90
2018-03-28T07:15:54.530Z,145.40
2018-03-28T07:16:54.513Z,144.90
2018-03-28T07:17:54.481Z,143.70
2018-03-28T07:18:54.460Z,138.40
2018-03-28T07:19:54.449Z,135.50
2018-03-28T07:20:54.418Z,119.10
2018-03-28T07:21:54.390Z,119.50
2018-03-28T07:22:54.364Z,124.70
2018-03-28T07:23:54.339Z,121.50
2018-03-28T07:24:54.327Z,123.80
2018-03-28T07:25:54.290Z,128.60
2018-03-28T07:26:54.269Z,100.30
2018-03-28T07:27:54.242Z,107.40
2018-03-28T07:28:54.217Z,108.60
2018-03-28T07:29:54.197Z,120.90
2018-03-28T07:30:54.174Z,125.60
2018-03-28T07:31:54.147Z,105.30
2018-03-28T07:32:54.121Z,113.80
2018-03-28T07:33:54.101Z,107.50
2018-03-28T07:34:54.076Z,113.60
2018-03-28T07:35:54.054Z,108.30
2018-03-28T07:36:54.034Z,104.60
2018-03-28T07:37:54.006Z,114.20
2018-03-28T07:38:53.993Z,106.90
2018-03-28T07:39:53.961Z,111.90
2018-03-28T07:40:53.929Z,101.20
2018-03-28T07:41:53.910Z,102.80
2018-03-28T07:42:53.886Z,114.90
2018-03-28T07:43:53.866Z,102.30
2018-03-28T07:44:53.841Z,112.50
2018-03-28T07:45:53.814Z,114.60
2018-03-28T07:46:53.796Z,93.80
2018-03-28T07:47:53.774Z,97.70
2018-03-28T07:48:53.752Z,103.00
2018-03-28T07:49:53.722Z,106.00
2018-03-28T07:50:53.700Z,98.10
2018-03-28T07:51:53.669Z,108.30
2018-03-28T07:52:53.651Z,108.10
2018-03-28T07:53:53.628Z,110.00
2018-03-28T07:54:53.602Z,104.50
2018-03-28T07:55:53.577Z,89.00
2018-03-28T07:56:53.558Z,99.50
2018-03-28T07:57:53.533Z,87.20
2018-03-28T07:58:53.510Z,93.60
2018-03-28T07:59:53.485Z,92.20
2018-03-28T08:00:53.456Z,87.70
2018-03-28T08:01:53.436Z,88.10
2018-03-28T08:02:53.412Z,86.70
2018-03-28T08:03:53.466Z,86.00
2018-03-28T08:04:53.370Z,89.00
2018-03-28T08:05:53.338Z,78.50
2018-03-28T08:06:53.324Z,70.90
2018-03-28T08:07:53.298Z,73.70
2018-03-28T08:08:53.270Z,80.00
2018-03-28T08:09:53.254Z,85.80
2018-03-28T08:10:53.227Z,81.70
2018-03-28T08:11:53.203Z,81.20
2018-03-28T08:12:53.177Z,73.60
2018-03-28T08:13:53.159Z,77.00
2018-03-28T08:14:53.137Z,77.70
2018-03-28T08:15:53.108Z,78.10
2018-03-28T08:16:53.087Z,77.50
2018-03-28T08:17:53.063Z,72.70
2018-03-28T08:18:53.033Z,69.40
2018-03-28T08:19:53.019Z,67.80
2018-03-28T08:20:52.998Z,64.50
2018-03-28T08:21:52.966Z,66.40
2018-03-28T08:22:52.940Z,62.50
2018-03-28T08:23:52.917Z,62.90
2018-03-28T08:24:52.903Z,64.60
2018-03-28T08:25:52.871Z,64.90
2018-03-28T08:26:52.855Z,61.90
2018-03-28T08:27:52.833Z,57.90
2018-03-28T08:28:52.808Z,62.40
2018-03-28T08:29:52.782Z,65.00
2018-03-28T08:30:52.759Z,68.40
2018-03-28T08:31:52.736Z,57.80
2018-03-28T08:32:52.734Z,60.00
2018-03-28T08:33:52.698Z,54.30
2018-03-28T08:34:52.675Z,54.20
2018-03-28T08:35:52.653Z,54.80
2018-03-28T08:36:52.626Z,52.30
2018-03-28T08:37:52.610Z,53.60
2018-03-28T08:38:52.587Z,47.60
2018-03-28T08:39:52.573Z,52.30
2018-03-28T08:40:52.540Z,49.30
2018-03-28T08:41:52.526Z,51.70
2018-03-28T08:42:52.495Z,48.20
2018-03-28T08:43:52.476Z,47.70
2018-03-28T08:44:52.457Z,46.50
2018-03-28T08:45:52.441Z,48.40
2018-03-28T08:46:52.411Z,45.40
2018-03-28T08:47:52.387Z,45.40
2018-03-28T08:48:52.369Z,48.80
2018-03-28T08:49:52.348Z,47.70
2018-03-28T08:50:52.322Z,50.30
2018-03-28T08:51:52.306Z,43.50
2018-03-28T08:52:52.281Z,44.70
2018-03-28T08:53:52.266Z,41.50
2018-03-28T08:54:52.242Z,47.30
2018-03-28T08:55:52.218Z,48.20
2018-03-28T08:56:52.206Z,42.60
2018-03-28T08:57:52.181Z,46.50
2018-03-28T08:58:52.161Z,43.20
2018-03-28T08:59:52.138Z,43.50
2018-03-28T09:00:52.130Z,46.40
2018-03-28T09:01:52.126Z,47.90
2018-03-28T09:02:52.079Z,43.60
2018-03-28T09:03:52.061Z,41.80
2018-03-28T09:04:52.042Z,42.80
2018-03-28T09:05:52.020Z,43.80
2018-03-28T09:06:52.000Z,44.90
2018-03-28T09:07:51.985Z,42.50
2018-03-28T09:08:51.955Z,46.00
2018-03-28T09:09:51.933Z,42.10
2018-03-28T09:10:51.912Z,44.30
2018-03-28T09:11:51.898Z,43.70
2018-03-28T09:12:51.884Z,42.90
2018-03-28T09:13:51.849Z,43.70
2018-03-28T09:14:51.842Z,44.40
2018-03-28T09:15:51.817Z,37.40
2018-03-28T09:16:51.795Z,42.80
2018-03-28T09:17:51.772Z,43.00
2018-03-28T09:18:51.763Z,35.90
2018-03-28T09:19:51.737Z,40.00
2018-03-28T09:20:51.716Z,44.40
2018-03-28T09:21:51.694Z,38.90
2018-03-28T09:22:51.681Z,41.40
2018-03-28T09:23:51.657Z,42.60
2018-03-28T09:24:51.639Z,41.90
2018-03-28T09:25:51.612Z,37.80
2018-03-28T09:26:51.608Z,43.70
2018-03-28T09:27:51.573Z,41.20
2018-03-28T09:28:51.548Z,38.90
2018-03-28T09:29:51.535Z,39.30
2018-03-28T09:30:51.514Z,40.20
2018-03-28T09:31:51.509Z,37.30
2018-03-28T09:32:51.527Z,39.70
2018-03-28T09:33:51.450Z,36.10
2018-03-28T09:34:51.441Z,38.70
2018-03-28T09:35:51.408Z,41.30
2018-03-28T09:36:51.385Z,40.40
2018-03-28T09:37:51.368Z,36.10
2018-03-28T09:38:51.352Z,39.90
2018-03-28T09:39:51.326Z,38.00
2018-03-28T09:40:51.308Z,36.10
2018-03-28T09:41:51.294Z,38.70
2018-03-28T09:42:51.267Z,39.10
2018-03-28T09:43:51.246Z,42.20
2018-03-28T09:44:51.233Z,42.10
2018-03-28T09:45:51.209Z,35.30
2018-03-28T09:46:51.180Z,33.60
2018-03-28T09:47:51.158Z,38.50
2018-03-28T09:48:51.139Z,37.50
2018-03-28T09:49:51.121Z,35.90
2018-03-28T09:50:51.100Z,36.70
2018-03-28T09:51:51.078Z,35.00
2018-03-28T09:52:51.085Z,38.70
2018-03-28T09:53:51.036Z,36.40
2018-03-28T09:54:51.017Z,35.70
2018-03-28T09:55:50.990Z,40.70
2018-03-28T09:56:50.983Z,36.40
2018-03-28T09:57:50.957Z,37.80
2018-03-28T09:58:50.932Z,36.50
2018-03-28T09:59:50.923Z,36.00
2018-03-28T10:00:50.890Z,34.80
2018-03-28T10:01:50.871Z,38.70
2018-03-28T10:02:50.847Z,38.10
2018-03-28T10:03:50.831Z,36.10
2018-03-28T10:04:50.813Z,35.50
2018-03-28T10:05:50.787Z,34.70
2018-03-28T10:06:50.766Z,36.10
2018-03-28T10:07:50.754Z,34.10
2018-03-28T10:08:50.733Z,36.00
2018-03-28T10:09:50.710Z,33.90
2018-03-28T10:10:50.685Z,35.50
2018-03-28T10:11:50.684Z,37.20
2018-03-28T10:12:50.646Z,33.10
2018-03-28T10:13:50.625Z,37.80
2018-03-28T10:14:50.606Z,33.30
2018-03-28T10:15:50.583Z,37.00
2018-03-28T10:16:50.568Z,34.60
2018-03-28T10:17:50.542Z,32.50
2018-03-28T10:18:50.525Z,38.60
2018-03-28T10:19:50.510Z,36.90
2018-03-28T10:20:50.490Z,32.60
2018-03-28T10:21:50.474Z,36.60
2018-03-28T10:22:50.445Z,32.80
2018-03-28T10:23:50.428Z,36.10
2018-03-28T10:24:50.409Z,35.90
2018-03-28T10:25:50.386Z,31.90
2018-03-28T10:26:50.368Z,33.80
2018-03-28T10:27:50.350Z,33.30
2018-03-28T10:28:50.328Z,33.00
2018-03-28T10:29:50.358Z,38.40
2018-03-28T10:30:50.296Z,38.60
2018-03-28T10:31:50.281Z,36.20
2018-03-28T10:32:50.247Z,34.00
2018-03-28T10:33:50.226Z,39.10
2018-03-28T10:34:50.209Z,34.20
2018-03-28T10:35:50.188Z,35.60
2018-03-28T10:36:50.174Z,39.30
2018-03-28T10:37:50.141Z,31.50
2018-03-28T10:38:50.194Z,34.90
2018-03-28T10:39:50.108Z,34.10
2018-03-28T10:40:50.084Z,32.60
2018-03-28T10:41:50.063Z,35.10
2018-03-28T10:42:50.052Z,37.00
2018-03-28T10:43:50.027Z,35.20
2018-03-28T10:44:50.002Z,36.50
2018-03-28T10:45:49.985Z,35.40
2018-03-28T10:46:49.965Z,34.60
2018-03-28T10:47:49.943Z,36.70
2018-03-28T10:48:49.929Z,34.30
2018-03-28T10:49:49.909Z,36.50
2018-03-28T10:50:49.900Z,32.80
2018-03-28T10:51:49.860Z,35.30
2018-03-28T10:52:49.845Z,37.30
2018-03-28T10:53:49.823Z,37.50
2018-03-28T10:54:49.803Z,38.30
2018-03-28T10:55:49.782Z,32.90
2018-03-28T10:56:49.757Z,31.70
2018-03-28T10:57:49.745Z,33.10
2018-03-28T10:58:49.722Z,29.80
2018-03-28T10:59:49.698Z,32.60
2018-03-28T11:00:49.684Z,34.80
2018-03-28T11:01:49.657Z,30.30
2018-03-28T11:02:49.643Z,31.20
2018-03-28T11:03:49.620Z,29.50
2018-03-28T11:04:49.603Z,31.20
2018-03-28T11:05:49.579Z,33.80
2018-03-28T11:06:49.554Z,34.40
2018-03-28T11:07:49.536Z,30.80
2018-03-28T11:08:49.515Z,30.90
2018-03-28T11:09:49.499Z,32.90
2018-03-28T11:10:49.478Z,35.20
2018-03-28T11:11:49.454Z,35.20
2018-03-28T11:12:49.434Z,32.60
2018-03-28T11:13:49.419Z,33.20
2018-03-28T11:14:49.392Z,28.30
2018-03-28T11:15:49.375Z,29.80
2018-03-28T11:16:49.353Z,26.70
2018-03-28T11:17:49.332Z,32.40
2018-03-28T11:18:49.311Z,29.80
2018-03-28T11:19:49.295Z,32.90
2018-03-28T11:20:49.277Z,30.70
2018-03-28T11:21:49.254Z,30.20
2018-03-28T11:22:49.226Z,29.30
2018-03-28T11:23:49.209Z,28.20
2018-03-28T11:24:49.188Z,28.90
2018-03-28T11:25:49.171Z,29.60
2018-03-28T11:26:49.146Z,28.20
2018-03-28T11:27:49.125Z,32.40
2018-03-28T11:28:49.101Z,28.70
2018-03-28T11:29:49.082Z,30.40
2018-03-28T11:30:49.064Z,31.40
2018-03-28T11:31:49.056Z,31.90
2018-03-28T11:32:49.022Z,29.90
2018-03-28T11:33:49.000Z,29.50
2018-03-28T11:34:48.982Z,28.80
2018-03-28T11:35:48.965Z,26.40
2018-03-28T11:36:48.943Z,29.20
2018-03-28T11:37:48.913Z,28.70
2018-03-28T11:38:48.923Z,31.30
2018-03-28T11:39:48.877Z,31.00
2018-03-28T11:40:48.852Z,27.60
2018-03-28T11:41:48.834Z,31.70
2018-03-28T11:42:48.820Z,28.60
2018-03-28T11:43:48.796Z,28.40
2018-03-28T11:44:48.772Z,28.90
2018-03-28T11:45:48.756Z,27.70
2018-03-28T11:46:48.738Z,28.20
2018-03-28T11:47:48.706Z,32.30
2018-03-28T11:48:48.689Z,30.60
2018-03-28T11:49:48.667Z,32.30
2018-03-28T11:50:48.678Z,34.10
2018-03-28T11:51:48.627Z,30.00
2018-03-28T11:52:48.617Z,25.40
2018-03-28T11:53:48.584Z,30.90
2018-03-28T11:54:48.562Z,29.60
2018-03-28T11:55:48.542Z,31.00
2018-03-28T11:56:48.535Z,27.80
2018-03-28T11:57:48.497Z,26.90
2018-03-28T11:58:48.478Z,28.90
2018-03-28T11:59:48.456Z,28.90
2018-03-28T12:00:48.437Z,29.20
2018-03-28T12:01:48.410Z,27.90
2018-03-28T12:02:48.388Z,28.80
2018-03-28T12:03:48.368Z,29.90
2018-03-28T12:04:48.348Z,32.00
2018-03-28T12:05:48.330Z,29.20
2018-03-28T12:06:48.304Z,30.20
2018-03-28T12:07:48.285Z,28.80
2018-03-28T12:08:48.272Z,31.00
2018-03-28T12:09:48.245Z,31.30
2018-03-28T12:10:48.221Z,31.50
2018-03-28T12:11:48.202Z,30.60
2018-03-28T12:12:48.192Z,31.70
2018-03-28T12:13:48.158Z,29.00
2018-03-28T12:14:48.133Z,30.20
2018-03-28T12:15:48.114Z,31.00
2018-03-28T12:16:48.095Z,29.80
2018-03-28T12:17:48.070Z,30.70
2018-03-28T12:18:48.055Z,27.90
2018-03-28T12:19:48.033Z,30.20
2018-03-28T12:20:48.010Z,33.10
2018-03-28T12:21:47.990Z,29.50
2018-03-28T12:22:47.970Z,33.10
2018-03-28T12:23:47.953Z,29.30
2018-03-28T12:24:47.920Z,33.80
2018-03-28T12:25:47.901Z,30.60
2018-03-28T12:26:47.881Z,31.80
2018-03-28T12:27:47.873Z,32.20
2018-03-28T12:28:47.838Z,31.90
2018-03-28T12:29:47.819Z,33.00
2018-03-28T12:30:47.801Z,33.90
2018-03-28T12:31:47.773Z,34.20
2018-03-28T12:32:47.756Z,33.60
2018-03-28T12:33:47.734Z,33.90
2018-03-28T12:34:47.715Z,35.00
2018-03-28T12:35:47.690Z,34.90
2018-03-28T12:36:47.717Z,37.20
2018-03-28T12:37:47.641Z,35.20
2018-03-28T12:38:47.625Z,39.70
2018-03-28T12:39:47.604Z,38.20
2018-03-28T12:40:47.582Z,34.70
2018-03-28T12:41:47.559Z,38.40
2018-03-28T12:42:47.538Z,39.70
2018-03-28T12:43:47.523Z,38.20
2018-03-28T12:44:47.496Z,39.40
2018-03-28T12:45:47.473Z,43.60
2018-03-28T12:46:47.448Z,42.70
2018-03-28T12:47:47.432Z,43.90
2018-03-28T12:48:47.441Z,40.70
2018-03-28T12:49:47.475Z,39.00
2018-03-28T12:50:47.364Z,48.00
2018-03-28T12:51:47.379Z,48.10
2018-03-28T12:52:47.319Z,47.70
2018-03-28T12:53:47.304Z,47.90
2018-03-28T12:54:47.306Z,45.30
2018-03-28T12:55:47.256Z,49.70
2018-03-28T12:56:47.246Z,44.40
2018-03-28T12:57:47.219Z,46.40
2018-03-28T12:58:47.188Z,46.70
2018-03-28T12:59:47.215Z,49.10
2018-03-28T13:00:47.140Z,56.60
2018-03-28T13:01:47.130Z,58.70
2018-03-28T13:02:47.098Z,49.70
2018-03-28T13:03:47.081Z,46.10
2018-03-28T13:04:47.084Z,52.00
2018-03-28T13:05:47.032Z,60.40
2018-03-28T13:06:47.007Z,54.50